sensor_id;sensor_type;location;lat;lon;timestamp;P1;durP1;ratioP1;P2;durP2;ratioP2
71715;SDS011;59568;52.128;5.434;2022-11-20T00:01:12;16.40;;;8.23;;
71715;SDS011;59568;52.128;5.434;2022-11-20T00:03:41;14.88;;;8.00;;
71715;SDS011;59568;52.128;5.434;2022-11-20T00:06:13;12.07;;;7.30;;
71715;SDS011;59568;52.128;5.434;2022-11-20T00:08:42;13.50;;;7.45;;
71715;SDS011;59568;52.128;5.434;2022-11-20T00:11:14;14.00;;;7.18;;
71715;SDS011;59568;52.128;5.434;2022-11-20T00:13:45;13.37;;;7.00;;
71715;SDS011;59568;52.128;5.434;2022-11-20T00:16:14;14.48;;;8.25;;
71715;SDS011;59568;52.128;5.434;2022-11-20T00:18:43;18.25;;;8.25;;
71715;SDS011;59568;52.128;5.434;2022-11-20T00:21:14;11.52;;;7.15;;
71715;SDS011;59568;52.128;5.434;2022-11-20T00:23:42;14.88;;;8.20;;
71715;SDS011;59568;52.128;5.434;2022-11-20T00:26:10;18.57;;;7.57;;
71715;SDS011;59568;52.128;5.434;2022-11-20T00:28:42;16.45;;;8.25;;
71715;SDS011;59568;52.128;5.434;2022-11-20T00:31:14;18.20;;;8.77;;
71715;SDS011;59568;52.128;5.434;2022-11-20T00:33:42;16.42;;;8.50;;
71715;SDS011;59568;52.128;5.434;2022-11-20T00:36:10;20.27;;;9.88;;
71715;SDS011;59568;52.128;5.434;2022-11-20T00:38:45;23.00;;;9.77;;
71715;SDS011;59568;52.128;5.434;2022-11-20T00:41:15;23.15;;;10.52;;
71715;SDS011;59568;52.128;5.434;2022-11-20T00:43:42;17.67;;;9.52;;
71715;SDS011;59568;52.128;5.434;2022-11-20T00:46:12;18.88;;;9.65;;
71715;SDS011;59568;52.128;5.434;2022-11-20T00:48:40;17.52;;;9.52;;
71715;SDS011;59568;52.128;5.434;2022-11-20T00:51:08;26.20;;;10.23;;
71715;SDS011;59568;52.128;5.434;2022-11-20T00:53:35;18.58;;;10.00;;
71715;SDS011;59568;52.128;5.434;2022-11-20T00:56:03;20.60;;;10.57;;
71715;SDS011;59568;52.128;5.434;2022-11-20T00:58:32;19.55;;;9.20;;
71715;SDS011;59568;52.128;5.434;2022-11-20T01:01:02;17.23;;;9.65;;
71715;SDS011;59568;52.128;5.434;2022-11-20T01:03:33;20.13;;;10.07;;
71715;SDS011;59568;52.128;5.434;2022-11-20T01:06:02;21.27;;;9.55;;
71715;SDS011;59568;52.128;5.434;2022-11-20T01:08:32;17.20;;;8.90;;
71715;SDS011;59568;52.128;5.434;2022-11-20T01:11:04;21.30;;;9.35;;
71715;SDS011;59568;52.128;5.434;2022-11-20T01:13:33;17.20;;;8.98;;
71715;SDS011;59568;52.128;5.434;2022-11-20T01:16:04;17.63;;;9.73;;
71715;SDS011;59568;52.128;5.434;2022-11-20T01:18:36;15.55;;;9.05;;
71715;SDS011;59568;52.128;5.434;2022-11-20T01:21:05;14.07;;;8.27;;
71715;SDS011;59568;52.128;5.434;2022-11-20T01:23:35;15.77;;;9.10;;
71715;SDS011;59568;52.128;5.434;2022-11-20T01:26:05;17.10;;;8.13;;
71715;SDS011;59568;52.128;5.434;2022-11-20T01:28:34;17.00;;;8.47;;
71715;SDS011;59568;52.128;5.434;2022-11-20T01:31:01;16.10;;;8.43;;
71715;SDS011;59568;52.128;5.434;2022-11-20T01:33:43;18.45;;;9.30;;
71715;SDS011;59568;52.128;5.434;2022-11-20T01:36:12;19.25;;;9.70;;
71715;SDS011;59568;52.128;5.434;2022-11-20T01:38:40;15.65;;;8.93;;
71715;SDS011;59568;52.128;5.434;2022-11-20T01:41:08;21.50;;;8.03;;
71715;SDS011;59568;52.128;5.434;2022-11-20T01:43:36;15.48;;;8.10;;
71715;SDS011;59568;52.128;5.434;2022-11-20T01:46:16;18.38;;;8.10;;
71715;SDS011;59568;52.128;5.434;2022-11-20T01:51:19;18.15;;;8.75;;
71715;SDS011;59568;52.128;5.434;2022-11-20T01:53:50;18.27;;;8.80;;
71715;SDS011;59568;52.128;5.434;2022-11-20T01:56:20;18.45;;;8.32;;
71715;SDS011;59568;52.128;5.434;2022-11-20T01:58:50;15.43;;;8.73;;
71715;SDS011;59568;52.128;5.434;2022-11-20T02:01:20;16.83;;;8.60;;
71715;SDS011;59568;52.128;5.434;2022-11-20T02:03:48;17.15;;;8.23;;
71715;SDS011;59568;52.128;5.434;2022-11-20T02:06:22;17.37;;;8.00;;
71715;SDS011;59568;52.128;5.434;2022-11-20T02:08:51;15.10;;;7.18;;
71715;SDS011;59568;52.128;5.434;2022-11-20T02:11:19;20.55;;;8.80;;
71715;SDS011;59568;52.128;5.434;2022-11-20T02:13:46;14.40;;;8.10;;
71715;SDS011;59568;52.128;5.434;2022-11-20T02:18:49;16.13;;;7.90;;
71715;SDS011;59568;52.128;5.434;2022-11-20T02:21:28;15.93;;;8.15;;
71715;SDS011;59568;52.128;5.434;2022-11-20T02:24:17;15.07;;;7.40;;
71715;SDS011;59568;52.128;5.434;2022-11-20T02:29:51;13.15;;;7.18;;
71715;SDS011;59568;52.128;5.434;2022-11-20T02:32:24;11.60;;;6.43;;
71715;SDS011;59568;52.128;5.434;2022-11-20T02:34:55;13.70;;;6.68;;
71715;SDS011;59568;52.128;5.434;2022-11-20T02:37:23;13.82;;;6.75;;
71715;SDS011;59568;52.128;5.434;2022-11-20T02:39:56;13.13;;;7.18;;
71715;SDS011;59568;52.128;5.434;2022-11-20T02:42:24;13.75;;;6.38;;
71715;SDS011;59568;52.128;5.434;2022-11-20T02:44:50;13.80;;;6.63;;
71715;SDS011;59568;52.128;5.434;2022-11-20T02:47:17;15.40;;;7.32;;
71715;SDS011;59568;52.128;5.434;2022-11-20T02:49:44;9.85;;;5.82;;
71715;SDS011;59568;52.128;5.434;2022-11-20T02:52:11;15.48;;;7.45;;
71715;SDS011;59568;52.128;5.434;2022-11-20T02:54:38;12.60;;;7.05;;
71715;SDS011;59568;52.128;5.434;2022-11-20T02:57:05;15.80;;;6.97;;
71715;SDS011;59568;52.128;5.434;2022-11-20T02:59:32;11.10;;;5.95;;
71715;SDS011;59568;52.128;5.434;2022-11-20T03:01:58;14.48;;;7.13;;
71715;SDS011;59568;52.128;5.434;2022-11-20T03:04:25;13.57;;;5.97;;
71715;SDS011;59568;52.128;5.434;2022-11-20T03:06:52;13.38;;;5.97;;
71715;SDS011;59568;52.128;5.434;2022-11-20T03:09:19;11.27;;;6.37;;
71715;SDS011;59568;52.128;5.434;2022-11-20T03:11:47;13.60;;;6.53;;
71715;SDS011;59568;52.128;5.434;2022-11-20T03:14:14;15.65;;;7.72;;
71715;SDS011;59568;52.128;5.434;2022-11-20T03:16:41;11.80;;;6.97;;
71715;SDS011;59568;52.128;5.434;2022-11-20T03:19:07;15.57;;;6.72;;
71715;SDS011;59568;52.128;5.434;2022-11-20T03:21:35;12.53;;;7.10;;
71715;SDS011;59568;52.128;5.434;2022-11-20T03:24:02;13.93;;;7.03;;
71715;SDS011;59568;52.128;5.434;2022-11-20T03:26:29;13.13;;;7.78;;
71715;SDS011;59568;52.128;5.434;2022-11-20T03:29:00;14.35;;;7.05;;
71715;SDS011;59568;52.128;5.434;2022-11-20T03:31:31;12.07;;;6.18;;
71715;SDS011;59568;52.128;5.434;2022-11-20T03:34:02;10.83;;;6.97;;
71715;SDS011;59568;52.128;5.434;2022-11-20T03:36:30;12.25;;;6.13;;
71715;SDS011;59568;52.128;5.434;2022-11-20T03:38:57;15.00;;;6.57;;
71715;SDS011;59568;52.128;5.434;2022-11-20T03:41:26;15.88;;;6.35;;
71715;SDS011;59568;52.128;5.434;2022-11-20T03:43:56;12.85;;;7.00;;
71715;SDS011;59568;52.128;5.434;2022-11-20T03:46:24;15.63;;;6.83;;
71715;SDS011;59568;52.128;5.434;2022-11-20T03:48:52;11.20;;;6.22;;
71715;SDS011;59568;52.128;5.434;2022-11-20T03:51:22;11.80;;;5.47;;
71715;SDS011;59568;52.128;5.434;2022-11-20T03:53:51;14.57;;;6.35;;
71715;SDS011;59568;52.128;5.434;2022-11-20T03:56:20;14.18;;;6.25;;
71715;SDS011;59568;52.128;5.434;2022-11-20T03:58:49;10.60;;;5.33;;
71715;SDS011;59568;52.128;5.434;2022-11-20T04:01:17;11.65;;;6.13;;
71715;SDS011;59568;52.128;5.434;2022-11-20T04:03:46;11.52;;;5.70;;
71715;SDS011;59568;52.128;5.434;2022-11-20T04:06:15;13.13;;;5.38;;
71715;SDS011;59568;52.128;5.434;2022-11-20T04:08:43;10.93;;;5.93;;
71715;SDS011;59568;52.128;5.434;2022-11-20T04:11:18;12.10;;;6.27;;
71715;SDS011;59568;52.128;5.434;2022-11-20T04:13:48;13.43;;;6.10;;
71715;SDS011;59568;52.128;5.434;2022-11-20T04:16:17;13.50;;;6.03;;
71715;SDS011;59568;52.128;5.434;2022-11-20T04:18:44;10.38;;;5.55;;
71715;SDS011;59568;52.128;5.434;2022-11-20T04:21:12;11.57;;;6.57;;
71715;SDS011;59568;52.128;5.434;2022-11-20T04:23:39;13.87;;;6.93;;
71715;SDS011;59568;52.128;5.434;2022-11-20T04:26:07;12.82;;;5.93;;
71715;SDS011;59568;52.128;5.434;2022-11-20T04:28:35;15.15;;;6.18;;
71715;SDS011;59568;52.128;5.434;2022-11-20T04:31:10;10.15;;;5.75;;
71715;SDS011;59568;52.128;5.434;2022-11-20T04:33:39;14.27;;;6.30;;
71715;SDS011;59568;52.128;5.434;2022-11-20T04:36:16;12.40;;;5.60;;
71715;SDS011;59568;52.128;5.434;2022-11-20T04:38:54;13.50;;;6.20;;
71715;SDS011;59568;52.128;5.434;2022-11-20T04:41:23;11.02;;;5.75;;
71715;SDS011;59568;52.128;5.434;2022-11-20T04:43:53;12.65;;;6.40;;
71715;SDS011;59568;52.128;5.434;2022-11-20T04:46:26;11.48;;;6.07;;
71715;SDS011;59568;52.128;5.434;2022-11-20T04:48:54;15.80;;;6.53;;
71715;SDS011;59568;52.128;5.434;2022-11-20T04:51:21;11.02;;;5.75;;
71715;SDS011;59568;52.128;5.434;2022-11-20T04:53:48;13.63;;;5.78;;
71715;SDS011;59568;52.128;5.434;2022-11-20T04:56:15;11.25;;;5.65;;
71715;SDS011;59568;52.128;5.434;2022-11-20T04:58:43;11.77;;;5.80;;
71715;SDS011;59568;52.128;5.434;2022-11-20T05:01:14;13.23;;;6.63;;
71715;SDS011;59568;52.128;5.434;2022-11-20T05:03:43;13.02;;;6.00;;
71715;SDS011;59568;52.128;5.434;2022-11-20T05:06:12;11.90;;;6.45;;
71715;SDS011;59568;52.128;5.434;2022-11-20T05:08:40;13.77;;;7.45;;
71715;SDS011;59568;52.128;5.434;2022-11-20T05:11:09;13.25;;;5.43;;
71715;SDS011;59568;52.128;5.434;2022-11-20T05:13:37;12.97;;;6.37;;
71715;SDS011;59568;52.128;5.434;2022-11-20T05:16:06;13.48;;;6.07;;
71715;SDS011;59568;52.128;5.434;2022-11-20T05:18:35;11.55;;;5.85;;
71715;SDS011;59568;52.128;5.434;2022-11-20T05:21:03;10.63;;;6.18;;
71715;SDS011;59568;52.128;5.434;2022-11-20T05:23:30;10.18;;;5.55;;
71715;SDS011;59568;52.128;5.434;2022-11-20T05:25:58;12.80;;;7.00;;
71715;SDS011;59568;52.128;5.434;2022-11-20T05:28:26;16.90;;;6.85;;
71715;SDS011;59568;52.128;5.434;2022-11-20T05:30:54;10.98;;;5.82;;
71715;SDS011;59568;52.128;5.434;2022-11-20T05:33:21;12.20;;;6.00;;
71715;SDS011;59568;52.128;5.434;2022-11-20T05:35:48;13.45;;;6.38;;
71715;SDS011;59568;52.128;5.434;2022-11-20T05:38:15;10.47;;;5.43;;
71715;SDS011;59568;52.128;5.434;2022-11-20T05:40:43;12.57;;;5.57;;
71715;SDS011;59568;52.128;5.434;2022-11-20T05:43:10;10.70;;;5.53;;
71715;SDS011;59568;52.128;5.434;2022-11-20T05:45:36;10.38;;;5.30;;
71715;SDS011;59568;52.128;5.434;2022-11-20T05:48:03;13.35;;;6.10;;
71715;SDS011;59568;52.128;5.434;2022-11-20T05:50:30;13.47;;;5.73;;
71715;SDS011;59568;52.128;5.434;2022-11-20T05:52:58;10.10;;;5.72;;
71715;SDS011;59568;52.128;5.434;2022-11-20T05:55:26;11.77;;;5.55;;
71715;SDS011;59568;52.128;5.434;2022-11-20T05:57:54;11.55;;;5.45;;
71715;SDS011;59568;52.128;5.434;2022-11-20T06:00:21;11.65;;;5.57;;
71715;SDS011;59568;52.128;5.434;2022-11-20T06:02:48;12.77;;;6.00;;
71715;SDS011;59568;52.128;5.434;2022-11-20T06:05:15;14.48;;;6.40;;
71715;SDS011;59568;52.128;5.434;2022-11-20T06:07:42;11.40;;;5.88;;
71715;SDS011;59568;52.128;5.434;2022-11-20T06:10:09;11.38;;;5.95;;
71715;SDS011;59568;52.128;5.434;2022-11-20T06:12:36;11.68;;;6.10;;
71715;SDS011;59568;52.128;5.434;2022-11-20T06:15:04;10.33;;;5.13;;
71715;SDS011;59568;52.128;5.434;2022-11-20T06:17:31;11.95;;;5.43;;
71715;SDS011;59568;52.128;5.434;2022-11-20T06:19:58;9.80;;;5.40;;
71715;SDS011;59568;52.128;5.434;2022-11-20T06:22:25;8.25;;;4.78;;
71715;SDS011;59568;52.128;5.434;2022-11-20T06:24:52;11.82;;;5.53;;
71715;SDS011;59568;52.128;5.434;2022-11-20T06:27:19;16.63;;;6.50;;
71715;SDS011;59568;52.128;5.434;2022-11-20T06:29:46;11.85;;;5.97;;
71715;SDS011;59568;52.128;5.434;2022-11-20T06:32:13;9.55;;;5.03;;
71715;SDS011;59568;52.128;5.434;2022-11-20T06:34:39;12.82;;;5.30;;
71715;SDS011;59568;52.128;5.434;2022-11-20T06:37:06;14.93;;;6.65;;
71715;SDS011;59568;52.128;5.434;2022-11-20T06:39:33;11.53;;;6.07;;
71715;SDS011;59568;52.128;5.434;2022-11-20T06:42:00;11.60;;;5.53;;
71715;SDS011;59568;52.128;5.434;2022-11-20T06:44:27;9.32;;;5.70;;
71715;SDS011;59568;52.128;5.434;2022-11-20T06:46:54;12.73;;;6.30;;
71715;SDS011;59568;52.128;5.434;2022-11-20T06:49:21;10.68;;;5.93;;
71715;SDS011;59568;52.128;5.434;2022-11-20T06:51:48;10.00;;;6.20;;
71715;SDS011;59568;52.128;5.434;2022-11-20T06:54:15;9.23;;;5.60;;
71715;SDS011;59568;52.128;5.434;2022-11-20T06:56:41;11.07;;;5.65;;
71715;SDS011;59568;52.128;5.434;2022-11-20T06:59:08;10.77;;;6.50;;
71715;SDS011;59568;52.128;5.434;2022-11-20T07:01:35;13.48;;;5.47;;
71715;SDS011;59568;52.128;5.434;2022-11-20T07:04:02;11.50;;;4.97;;
71715;SDS011;59568;52.128;5.434;2022-11-20T07:06:29;8.30;;;5.13;;
71715;SDS011;59568;52.128;5.434;2022-11-20T07:08:56;13.75;;;5.65;;
71715;SDS011;59568;52.128;5.434;2022-11-20T07:11:23;10.00;;;5.85;;
71715;SDS011;59568;52.128;5.434;2022-11-20T07:13:51;14.25;;;6.32;;
71715;SDS011;59568;52.128;5.434;2022-11-20T07:16:17;13.30;;;5.93;;
71715;SDS011;59568;52.128;5.434;2022-11-20T07:18:44;14.18;;;6.03;;
71715;SDS011;59568;52.128;5.434;2022-11-20T07:21:16;10.98;;;5.70;;
71715;SDS011;59568;52.128;5.434;2022-11-20T07:23:43;11.88;;;6.05;;
71715;SDS011;59568;52.128;5.434;2022-11-20T07:26:10;10.45;;;5.45;;
71715;SDS011;59568;52.128;5.434;2022-11-20T07:28:37;13.60;;;4.97;;
71715;SDS011;59568;52.128;5.434;2022-11-20T07:31:05;10.65;;;5.13;;
71715;SDS011;59568;52.128;5.434;2022-11-20T07:33:33;11.25;;;6.15;;
71715;SDS011;59568;52.128;5.434;2022-11-20T07:36:01;10.10;;;5.57;;
71715;SDS011;59568;52.128;5.434;2022-11-20T07:38:28;16.40;;;6.00;;
71715;SDS011;59568;52.128;5.434;2022-11-20T07:40:55;10.33;;;5.50;;
71715;SDS011;59568;52.128;5.434;2022-11-20T07:43:24;14.10;;;6.35;;
71715;SDS011;59568;52.128;5.434;2022-11-20T07:45:51;10.77;;;5.47;;
71715;SDS011;59568;52.128;5.434;2022-11-20T07:48:18;13.57;;;5.55;;
71715;SDS011;59568;52.128;5.434;2022-11-20T07:50:45;12.38;;;5.82;;
71715;SDS011;59568;52.128;5.434;2022-11-20T07:53:12;13.30;;;5.63;;
71715;SDS011;59568;52.128;5.434;2022-11-20T07:55:40;11.38;;;5.13;;
71715;SDS011;59568;52.128;5.434;2022-11-20T07:58:07;14.18;;;7.40;;
71715;SDS011;59568;52.128;5.434;2022-11-20T08:00:33;16.30;;;6.53;;
71715;SDS011;59568;52.128;5.434;2022-11-20T08:03:02;11.68;;;6.07;;
71715;SDS011;59568;52.128;5.434;2022-11-20T08:05:30;15.50;;;6.40;;
71715;SDS011;59568;52.128;5.434;2022-11-20T08:07:58;9.50;;;5.45;;
71715;SDS011;59568;52.128;5.434;2022-11-20T08:10:24;15.27;;;6.78;;
71715;SDS011;59568;52.128;5.434;2022-11-20T08:12:52;12.38;;;6.13;;
71715;SDS011;59568;52.128;5.434;2022-11-20T08:15:38;12.18;;;6.47;;
71715;SDS011;59568;52.128;5.434;2022-11-20T08:18:07;14.00;;;6.37;;
71715;SDS011;59568;52.128;5.434;2022-11-20T08:20:57;15.55;;;7.43;;
71715;SDS011;59568;52.128;5.434;2022-11-20T08:23:24;11.00;;;6.15;;
71715;SDS011;59568;52.128;5.434;2022-11-20T08:25:50;14.82;;;7.50;;
71715;SDS011;59568;52.128;5.434;2022-11-20T08:28:17;13.30;;;6.10;;
71715;SDS011;59568;52.128;5.434;2022-11-20T08:30:47;17.80;;;8.07;;
71715;SDS011;59568;52.128;5.434;2022-11-20T08:33:15;16.08;;;7.30;;
71715;SDS011;59568;52.128;5.434;2022-11-20T08:35:43;14.27;;;7.90;;
71715;SDS011;59568;52.128;5.434;2022-11-20T08:38:10;12.45;;;6.57;;
71715;SDS011;59568;52.128;5.434;2022-11-20T08:40:37;19.98;;;7.85;;
71715;SDS011;59568;52.128;5.434;2022-11-20T08:43:04;15.30;;;7.30;;
71715;SDS011;59568;52.128;5.434;2022-11-20T08:45:31;18.60;;;9.00;;
71715;SDS011;59568;52.128;5.434;2022-11-20T08:48:03;18.15;;;8.55;;
71715;SDS011;59568;52.128;5.434;2022-11-20T08:50:30;16.92;;;8.75;;
71715;SDS011;59568;52.128;5.434;2022-11-20T08:53:03;15.02;;;7.95;;
71715;SDS011;59568;52.128;5.434;2022-11-20T08:55:31;16.87;;;8.10;;
71715;SDS011;59568;52.128;5.434;2022-11-20T08:58:02;17.80;;;8.50;;
71715;SDS011;59568;52.128;5.434;2022-11-20T09:00:30;14.40;;;8.02;;
71715;SDS011;59568;52.128;5.434;2022-11-20T09:02:56;16.90;;;8.20;;
71715;SDS011;59568;52.128;5.434;2022-11-20T09:05:24;22.77;;;9.02;;
71715;SDS011;59568;52.128;5.434;2022-11-20T09:07:52;16.73;;;8.67;;
71715;SDS011;59568;52.128;5.434;2022-11-20T09:10:22;17.98;;;8.50;;
71715;SDS011;59568;52.128;5.434;2022-11-20T09:12:50;16.40;;;8.20;;
71715;SDS011;59568;52.128;5.434;2022-11-20T09:15:18;18.65;;;9.75;;
71715;SDS011;59568;52.128;5.434;2022-11-20T09:17:52;20.20;;;8.75;;
71715;SDS011;59568;52.128;5.434;2022-11-20T09:20:20;16.07;;;9.10;;
71715;SDS011;59568;52.128;5.434;2022-11-20T09:22:47;17.38;;;9.50;;
71715;SDS011;59568;52.128;5.434;2022-11-20T09:25:14;17.60;;;9.13;;
71715;SDS011;59568;52.128;5.434;2022-11-20T09:27:41;15.18;;;9.20;;
71715;SDS011;59568;52.128;5.434;2022-11-20T09:30:10;17.90;;;8.57;;
71715;SDS011;59568;52.128;5.434;2022-11-20T09:32:38;17.00;;;8.33;;
71715;SDS011;59568;52.128;5.434;2022-11-20T09:35:05;17.88;;;8.60;;
71715;SDS011;59568;52.128;5.434;2022-11-20T09:37:32;18.90;;;8.85;;
71715;SDS011;59568;52.128;5.434;2022-11-20T09:39:59;19.00;;;9.60;;
71715;SDS011;59568;52.128;5.434;2022-11-20T09:42:36;16.17;;;9.48;;
71715;SDS011;59568;52.128;5.434;2022-11-20T09:50:56;16.90;;;8.68;;
71715;SDS011;59568;52.128;5.434;2022-11-20T09:53:28;16.60;;;8.63;;
71715;SDS011;59568;52.128;5.434;2022-11-20T09:55:56;18.02;;;9.32;;
71715;SDS011;59568;52.128;5.434;2022-11-20T10:01:12;18.05;;;9.30;;
71715;SDS011;59568;52.128;5.434;2022-11-20T10:06:22;17.77;;;10.23;;
71715;SDS011;59568;52.128;5.434;2022-11-20T10:08:58;17.65;;;9.50;;
71715;SDS011;59568;52.128;5.434;2022-11-20T10:11:48;18.80;;;8.93;;
71715;SDS011;59568;52.128;5.434;2022-11-20T10:22:51;16.13;;;9.45;;
71715;SDS011;59568;52.128;5.434;2022-11-20T10:28:22;15.55;;;8.95;;
71715;SDS011;59568;52.128;5.434;2022-11-20T10:31:33;16.60;;;9.05;;
71715;SDS011;59568;52.128;5.434;2022-11-20T10:34:11;21.45;;;9.82;;
71715;SDS011;59568;52.128;5.434;2022-11-20T10:36:54;17.25;;;9.93;;
71715;SDS011;59568;52.128;5.434;2022-11-20T10:42:30;17.98;;;9.93;;
71715;SDS011;59568;52.128;5.434;2022-11-20T10:45:15;18.00;;;10.18;;
71715;SDS011;59568;52.128;5.434;2022-11-20T10:47:49;19.08;;;10.73;;
71715;SDS011;59568;52.128;5.434;2022-11-20T10:50:18;20.35;;;11.07;;
71715;SDS011;59568;52.128;5.434;2022-11-20T10:55:44;21.25;;;10.68;;
71715;SDS011;59568;52.128;5.434;2022-11-20T11:03:43;24.55;;;10.93;;
71715;SDS011;59568;52.128;5.434;2022-11-20T11:06:31;20.53;;;10.67;;
71715;SDS011;59568;52.128;5.434;2022-11-20T11:09:09;24.13;;;11.55;;
71715;SDS011;59568;52.128;5.434;2022-11-20T11:11:45;23.50;;;11.82;;
71715;SDS011;59568;52.128;5.434;2022-11-20T11:14:13;23.23;;;11.45;;
71715;SDS011;59568;52.128;5.434;2022-11-20T11:16:51;18.70;;;10.50;;
71715;SDS011;59568;52.128;5.434;2022-11-20T11:19:20;25.00;;;11.30;;
71715;SDS011;59568;52.128;5.434;2022-11-20T11:21:52;21.85;;;11.65;;
71715;SDS011;59568;52.128;5.434;2022-11-20T11:27:11;23.13;;;11.38;;
71715;SDS011;59568;52.128;5.434;2022-11-20T11:29:43;21.23;;;10.57;;
71715;SDS011;59568;52.128;5.434;2022-11-20T11:32:20;19.63;;;11.03;;
71715;SDS011;59568;52.128;5.434;2022-11-20T11:35:04;22.98;;;12.00;;
71715;SDS011;59568;52.128;5.434;2022-11-20T11:37:34;23.17;;;11.43;;
71715;SDS011;59568;52.128;5.434;2022-11-20T11:40:03;22.58;;;11.85;;
71715;SDS011;59568;52.128;5.434;2022-11-20T11:42:54;25.05;;;11.27;;
71715;SDS011;59568;52.128;5.434;2022-11-20T11:45:24;22.03;;;12.50;;
71715;SDS011;59568;52.128;5.434;2022-11-20T11:47:53;25.02;;;12.25;;
71715;SDS011;59568;52.128;5.434;2022-11-20T11:50:25;24.27;;;11.65;;
71715;SDS011;59568;52.128;5.434;2022-11-20T12:01:13;23.60;;;13.10;;
71715;SDS011;59568;52.128;5.434;2022-11-20T12:04:11;24.55;;;12.50;;
71715;SDS011;59568;52.128;5.434;2022-11-20T12:07:38;24.33;;;12.07;;
71715;SDS011;59568;52.128;5.434;2022-11-20T12:10:23;26.02;;;12.32;;
71715;SDS011;59568;52.128;5.434;2022-11-20T12:15:46;22.55;;;12.50;;
71715;SDS011;59568;52.128;5.434;2022-11-20T12:18:15;25.60;;;12.52;;
71715;SDS011;59568;52.128;5.434;2022-11-20T12:21:09;25.38;;;12.57;;
71715;SDS011;59568;52.128;5.434;2022-11-20T12:33:11;22.73;;;12.15;;
71715;SDS011;59568;52.128;5.434;2022-11-20T12:40:33;24.93;;;12.10;;
71715;SDS011;59568;52.128;5.434;2022-11-20T12:43:22;24.10;;;12.02;;
71715;SDS011;59568;52.128;5.434;2022-11-20T12:54:53;24.27;;;11.97;;
71715;SDS011;59568;52.128;5.434;2022-11-20T12:57:45;22.15;;;12.02;;
71715;SDS011;59568;52.128;5.434;2022-11-20T13:00:19;25.80;;;12.50;;
71715;SDS011;59568;52.128;5.434;2022-11-20T13:08:56;22.70;;;12.10;;
71715;SDS011;59568;52.128;5.434;2022-11-20T13:11:34;26.55;;;12.43;;
71715;SDS011;59568;52.128;5.434;2022-11-20T13:20:09;22.45;;;11.35;;
71715;SDS011;59568;52.128;5.434;2022-11-20T13:22:42;25.20;;;13.10;;
71715;SDS011;59568;52.128;5.434;2022-11-20T13:25:25;22.83;;;11.88;;
71715;SDS011;59568;52.128;5.434;2022-11-20T13:27:52;26.90;;;12.93;;
71715;SDS011;59568;52.128;5.434;2022-11-20T13:30:24;22.92;;;12.27;;
71715;SDS011;59568;52.128;5.434;2022-11-20T13:32:57;25.58;;;13.02;;
71715;SDS011;59568;52.128;5.434;2022-11-20T13:35:32;24.53;;;13.03;;
71715;SDS011;59568;52.128;5.434;2022-11-20T13:38:05;25.65;;;13.45;;
71715;SDS011;59568;52.128;5.434;2022-11-20T13:40:35;25.27;;;12.05;;
71715;SDS011;59568;52.128;5.434;2022-11-20T13:43:20;22.10;;;11.27;;
71715;SDS011;59568;52.128;5.434;2022-11-20T13:46:04;23.42;;;11.73;;
71715;SDS011;59568;52.128;5.434;2022-11-20T13:48:43;25.00;;;12.53;;
71715;SDS011;59568;52.128;5.434;2022-11-20T13:51:25;28.05;;;13.95;;
71715;SDS011;59568;52.128;5.434;2022-11-20T13:54:28;25.58;;;12.77;;
71715;SDS011;59568;52.128;5.434;2022-11-20T13:57:41;25.88;;;12.32;;
71715;SDS011;59568;52.128;5.434;2022-11-20T14:00:17;24.77;;;12.55;;
71715;SDS011;59568;52.128;5.434;2022-11-20T14:02:59;26.73;;;11.07;;
71715;SDS011;59568;52.128;5.434;2022-11-20T14:06:14;22.88;;;11.15;;
71715;SDS011;59568;52.128;5.434;2022-11-20T14:09:30;22.00;;;11.23;;
71715;SDS011;59568;52.128;5.434;2022-11-20T14:11:59;26.55;;;11.80;;
71715;SDS011;59568;52.128;5.434;2022-11-20T14:14:28;27.10;;;12.70;;
71715;SDS011;59568;52.128;5.434;2022-11-20T14:17:16;24.10;;;13.33;;
71715;SDS011;59568;52.128;5.434;2022-11-20T14:19:47;22.95;;;12.10;;
71715;SDS011;59568;52.128;5.434;2022-11-20T14:22:20;26.30;;;12.15;;
71715;SDS011;59568;52.128;5.434;2022-11-20T14:28:05;25.98;;;11.13;;
71715;SDS011;59568;52.128;5.434;2022-11-20T14:30:55;27.37;;;12.50;;
71715;SDS011;59568;52.128;5.434;2022-11-20T14:33:26;26.40;;;12.85;;
71715;SDS011;59568;52.128;5.434;2022-11-20T14:44:12;27.20;;;13.73;;
71715;SDS011;59568;52.128;5.434;2022-11-20T14:46:39;24.27;;;12.52;;
71715;SDS011;59568;52.128;5.434;2022-11-20T14:49:12;27.98;;;14.05;;
71715;SDS011;59568;52.128;5.434;2022-11-20T14:51:59;23.52;;;12.75;;
71715;SDS011;59568;52.128;5.434;2022-11-20T14:54:47;25.33;;;13.05;;
71715;SDS011;59568;52.128;5.434;2022-11-20T14:57:26;25.93;;;12.87;;
71715;SDS011;59568;52.128;5.434;2022-11-20T15:00:08;26.65;;;13.40;;
71715;SDS011;59568;52.128;5.434;2022-11-20T15:02:50;21.88;;;12.13;;
71715;SDS011;59568;52.128;5.434;2022-11-20T15:05:19;27.98;;;13.32;;
71715;SDS011;59568;52.128;5.434;2022-11-20T15:07:48;23.85;;;12.43;;
71715;SDS011;59568;52.128;5.434;2022-11-20T15:10:32;23.17;;;12.53;;
71715;SDS011;59568;52.128;5.434;2022-11-20T15:13:00;25.33;;;13.70;;
71715;SDS011;59568;52.128;5.434;2022-11-20T15:15:41;26.27;;;13.02;;
71715;SDS011;59568;52.128;5.434;2022-11-20T15:18:16;26.15;;;13.98;;
71715;SDS011;59568;52.128;5.434;2022-11-20T15:20:45;28.90;;;13.43;;
71715;SDS011;59568;52.128;5.434;2022-11-20T15:23:13;29.00;;;15.20;;
71715;SDS011;59568;52.128;5.434;2022-11-20T15:25:41;27.30;;;14.50;;
71715;SDS011;59568;52.128;5.434;2022-11-20T15:28:13;26.17;;;14.50;;
71715;SDS011;59568;52.128;5.434;2022-11-20T15:31:12;27.70;;;14.10;;
71715;SDS011;59568;52.128;5.434;2022-11-20T15:33:40;29.00;;;15.18;;
71715;SDS011;59568;52.128;5.434;2022-11-20T15:36:08;27.33;;;13.70;;
71715;SDS011;59568;52.128;5.434;2022-11-20T15:38:35;29.55;;;14.23;;
71715;SDS011;59568;52.128;5.434;2022-11-20T15:41:02;29.40;;;13.93;;
71715;SDS011;59568;52.128;5.434;2022-11-20T15:43:29;25.42;;;12.95;;
71715;SDS011;59568;52.128;5.434;2022-11-20T15:45:58;30.00;;;12.88;;
71715;SDS011;59568;52.128;5.434;2022-11-20T15:48:28;31.10;;;14.80;;
71715;SDS011;59568;52.128;5.434;2022-11-20T15:53:37;41.47;;;18.35;;
71715;SDS011;59568;52.128;5.434;2022-11-20T15:56:05;54.20;;;21.90;;
71715;SDS011;59568;52.128;5.434;2022-11-20T15:58:32;35.70;;;16.50;;
71715;SDS011;59568;52.128;5.434;2022-11-20T16:00:59;27.77;;;14.20;;
71715;SDS011;59568;52.128;5.434;2022-11-20T16:03:26;28.90;;;13.85;;
71715;SDS011;59568;52.128;5.434;2022-11-20T16:05:53;30.00;;;14.43;;
71715;SDS011;59568;52.128;5.434;2022-11-20T16:08:19;29.13;;;13.77;;
71715;SDS011;59568;52.128;5.434;2022-11-20T16:10:46;27.73;;;14.32;;
71715;SDS011;59568;52.128;5.434;2022-11-20T16:13:14;33.43;;;14.63;;
71715;SDS011;59568;52.128;5.434;2022-11-20T16:16:04;34.17;;;14.18;;
71715;SDS011;59568;52.128;5.434;2022-11-20T16:18:34;29.40;;;13.98;;
71715;SDS011;59568;52.128;5.434;2022-11-20T16:21:01;27.38;;;14.27;;
71715;SDS011;59568;52.128;5.434;2022-11-20T16:23:28;27.75;;;14.43;;
71715;SDS011;59568;52.128;5.434;2022-11-20T16:25:55;29.87;;;14.30;;
71715;SDS011;59568;52.128;5.434;2022-11-20T16:28:22;29.60;;;15.07;;
71715;SDS011;59568;52.128;5.434;2022-11-20T16:30:49;30.55;;;14.88;;
71715;SDS011;59568;52.128;5.434;2022-11-20T16:33:16;28.75;;;14.60;;
71715;SDS011;59568;52.128;5.434;2022-11-20T16:35:43;31.63;;;14.30;;
71715;SDS011;59568;52.128;5.434;2022-11-20T16:38:10;32.47;;;15.00;;
71715;SDS011;59568;52.128;5.434;2022-11-20T16:40:37;28.17;;;13.85;;